createdAt,value
2023-03-17T00:01:28.498Z,1.10
2023-03-17T00:03:59.222Z,0.77
2023-03-17T00:06:35.675Z,0.80
2023-03-17T00:09:15.277Z,1.00
2023-03-17T00:11:47.127Z,0.85
2023-03-17T00:14:17.074Z,0.80
2023-03-17T00:16:51.589Z,1.00
2023-03-17T00:19:30.277Z,0.90
2023-03-17T00:22:02.197Z,1.10
2023-03-17T00:24:35.035Z,0.85
2023-03-17T00:27:11.520Z,0.85
2023-03-17T00:29:42.749Z,0.70
2023-03-17T00:32:21.095Z,0.93
2023-03-17T00:34:51.202Z,0.68
2023-03-17T00:37:21.413Z,0.70
2023-03-17T00:39:53.293Z,1.00
2023-03-17T00:42:23.917Z,1.00
2023-03-17T00:44:54.355Z,0.68
2023-03-17T00:47:25.132Z,0.85
2023-03-17T00:49:55.791Z,1.10
2023-03-17T00:52:27.299Z,0.90
2023-03-17T00:54:59.719Z,0.77
2023-03-17T00:57:30.296Z,0.80
2023-03-17T01:00:00.834Z,0.95
2023-03-17T01:02:31.656Z,0.70
2023-03-17T01:05:06.721Z,0.90
2023-03-17T01:07:37.676Z,0.80
2023-03-17T01:10:17.409Z,0.70
2023-03-17T01:12:48.968Z,0.85
2023-03-17T01:15:20.358Z,0.77
2023-03-17T01:17:51.812Z,0.60
2023-03-17T01:20:24.645Z,0.70
2023-03-17T01:22:56.882Z,0.68
2023-03-17T01:25:28.857Z,0.65
2023-03-17T01:28:01.154Z,0.85
2023-03-17T01:30:35.940Z,1.02
2023-03-17T01:33:07.343Z,0.57
2023-03-17T01:35:39.156Z,0.65
2023-03-17T01:38:10.425Z,0.45
2023-03-17T01:40:50.383Z,0.65
2023-03-17T01:43:24.944Z,0.80
2023-03-17T01:46:30.770Z,0.57
2023-03-17T01:49:19.739Z,0.57
2023-03-17T01:52:07.130Z,0.60
2023-03-17T01:54:45.732Z,0.73
2023-03-17T01:57:25.679Z,0.47
2023-03-17T02:00:01.321Z,0.60
2023-03-17T02:02:35.293Z,0.50
2023-03-17T02:05:09.754Z,0.52
2023-03-17T02:07:40.359Z,0.88
2023-03-17T02:10:13.097Z,0.55
2023-03-17T02:12:50.948Z,0.80
2023-03-17T02:15:21.937Z,0.98
2023-03-17T02:17:52.919Z,0.50
2023-03-17T02:21:16.448Z,0.77
2023-03-17T02:23:48.893Z,0.50
2023-03-17T02:26:20.836Z,0.63
2023-03-17T02:28:51.362Z,0.55
2023-03-17T02:31:22.451Z,0.80
2023-03-17T02:33:52.986Z,0.70
2023-03-17T02:36:23.711Z,0.80
2023-03-17T02:38:56.148Z,0.70
2023-03-17T02:41:26.969Z,0.52
2023-03-17T02:43:57.378Z,0.77
2023-03-17T02:46:28.121Z,0.52
2023-03-17T02:48:59.501Z,0.45
2023-03-17T02:51:30.838Z,0.55
2023-03-17T02:54:03.516Z,0.73
2023-03-17T02:56:33.198Z,0.57
2023-03-17T02:59:03.193Z,0.60
2023-03-17T03:01:34.781Z,0.60
2023-03-17T03:04:05.416Z,0.52
2023-03-17T03:06:35.813Z,0.77
2023-03-17T03:09:09.173Z,0.68
2023-03-17T03:11:39.351Z,0.63
2023-03-17T03:14:10.464Z,0.60
2023-03-17T03:16:41.104Z,0.60
2023-03-17T03:19:12.779Z,0.45
2023-03-17T03:21:43.106Z,0.43
2023-03-17T03:24:15.276Z,0.45
2023-03-17T03:26:45.422Z,0.40
2023-03-17T03:29:15.933Z,0.43
2023-03-17T03:31:45.786Z,0.47
2023-03-17T03:34:16.740Z,0.47
2023-03-17T03:36:48.152Z,0.50
2023-03-17T03:39:21.105Z,0.32
2023-03-17T03:41:51.429Z,0.57
2023-03-17T03:44:21.408Z,0.30
2023-03-17T03:46:51.494Z,0.50
2023-03-17T03:49:22.947Z,0.65
2023-03-17T03:51:53.220Z,0.45
2023-03-17T03:54:25.171Z,0.40
2023-03-17T03:56:55.399Z,0.32
2023-03-17T03:59:26.235Z,0.40
2023-03-17T04:01:56.840Z,0.50
2023-03-17T04:04:26.924Z,0.30
2023-03-17T04:06:57.205Z,0.60
2023-03-17T04:09:29.426Z,0.43
2023-03-17T04:11:59.766Z,0.43
2023-03-17T04:14:30.104Z,0.50
2023-03-17T04:17:00.204Z,0.43
2023-03-17T04:19:30.799Z,0.60
2023-03-17T04:22:02.247Z,0.40
2023-03-17T04:24:35.147Z,0.57
2023-03-17T04:27:06.240Z,0.50
2023-03-17T04:29:36.577Z,0.47
2023-03-17T04:32:08.583Z,0.40
2023-03-17T04:34:39.153Z,0.40
2023-03-17T04:37:09.432Z,0.57
2023-03-17T04:39:41.393Z,0.40
2023-03-17T04:42:12.786Z,0.60
2023-03-17T04:44:43.444Z,0.70
2023-03-17T04:47:14.732Z,0.50
2023-03-17T04:49:45.113Z,0.60
2023-03-17T04:52:15.729Z,0.80
2023-03-17T04:54:48.174Z,0.60
2023-03-17T04:57:18.617Z,0.57
2023-03-17T04:59:49.437Z,0.70
2023-03-17T05:02:20.254Z,0.70
2023-03-17T05:04:51.719Z,0.70
2023-03-17T05:07:22.259Z,0.55
2023-03-17T05:09:54.178Z,0.80
2023-03-17T05:12:24.566Z,1.05
2023-03-17T05:14:54.295Z,0.80
2023-03-17T05:17:24.709Z,0.77
2023-03-17T05:19:55.071Z,0.57
2023-03-17T05:22:25.434Z,0.63
2023-03-17T05:24:57.264Z,0.60
2023-03-17T05:27:28.431Z,0.55
2023-03-17T05:29:59.272Z,0.80
2023-03-17T05:32:29.442Z,0.50
2023-03-17T05:34:59.745Z,0.65
2023-03-17T05:37:30.460Z,0.70
2023-03-17T05:40:03.465Z,0.40
2023-03-17T05:42:33.847Z,0.30
2023-03-17T05:45:05.588Z,0.47
2023-03-17T05:47:36.643Z,0.60
2023-03-17T05:50:09.852Z,0.30
2023-03-17T05:52:40.131Z,0.50
2023-03-17T05:55:13.531Z,0.65
2023-03-17T05:57:43.442Z,0.63
2023-03-17T06:00:16.702Z,0.60
2023-03-17T06:02:47.503Z,0.40
2023-03-17T06:05:18.284Z,0.73
2023-03-17T06:07:54.895Z,0.40
2023-03-17T06:10:29.795Z,0.45
2023-03-17T06:13:03.368Z,0.60
2023-03-17T06:15:36.549Z,0.70
2023-03-17T06:18:07.724Z,0.45
2023-03-17T06:20:38.299Z,0.60
2023-03-17T06:23:09.275Z,0.47
2023-03-17T06:25:41.202Z,0.55
2023-03-17T06:28:12.030Z,0.52
2023-03-17T06:30:41.994Z,0.60
2023-03-17T06:33:12.454Z,0.80
2023-03-17T06:35:43.521Z,0.60
2023-03-17T06:38:13.820Z,0.77
2023-03-17T06:40:46.623Z,0.70
2023-03-17T06:43:17.974Z,0.57
2023-03-17T06:45:48.609Z,0.93
2023-03-17T06:48:18.857Z,1.17
2023-03-17T06:50:49.754Z,0.90
2023-03-17T06:53:20.450Z,0.95
2023-03-17T06:55:52.218Z,1.20
2023-03-17T06:58:23.434Z,1.10
2023-03-17T07:00:55.884Z,1.23
2023-03-17T07:03:26.919Z,1.17
2023-03-17T07:05:57.562Z,1.60
2023-03-17T07:08:30.863Z,1.55
2023-03-17T07:11:05.086Z,1.48
2023-03-17T07:13:37.678Z,1.45
2023-03-17T07:16:09.970Z,1.70
2023-03-17T07:18:40.302Z,1.77
2023-03-17T07:21:10.808Z,1.75
2023-03-17T07:23:41.131Z,1.88
2023-03-17T07:26:12.643Z,1.55
2023-03-17T07:28:43.033Z,1.65
2023-03-17T07:31:14.799Z,1.52
2023-03-17T07:33:45.336Z,1.90
2023-03-17T07:36:16.266Z,1.80
2023-03-17T07:38:47.052Z,1.70
2023-03-17T07:41:21.245Z,1.70
2023-03-17T07:43:51.989Z,1.65
2023-03-17T07:46:22.506Z,1.63
2023-03-17T07:48:52.498Z,1.60
2023-03-17T07:51:28.167Z,1.70
2023-03-17T07:54:04.067Z,1.88
2023-03-17T07:56:36.497Z,1.30
2023-03-17T07:59:08.531Z,1.83
2023-03-17T08:01:39.174Z,2.17
2023-03-17T08:04:11.137Z,1.88
2023-03-17T08:06:42.135Z,1.98
2023-03-17T08:09:13.800Z,2.10
2023-03-17T08:11:45.623Z,1.88
2023-03-17T08:14:16.323Z,1.70
2023-03-17T08:16:46.792Z,1.88
2023-03-17T08:19:17.510Z,1.98
2023-03-17T08:21:47.848Z,1.95
2023-03-17T08:24:17.805Z,1.75
2023-03-17T08:26:52.891Z,2.00
2023-03-17T08:29:22.847Z,1.70
2023-03-17T08:31:53.350Z,1.80
2023-03-17T08:34:24.482Z,1.90
2023-03-17T08:36:54.343Z,1.92
2023-03-17T08:39:24.949Z,1.70
2023-03-17T08:41:57.702Z,2.00
2023-03-17T08:44:28.408Z,1.67
2023-03-17T08:46:58.924Z,1.73
2023-03-17T08:49:31.543Z,2.00
2023-03-17T08:52:02.433Z,2.17
2023-03-17T08:54:33.174Z,1.80
2023-03-17T08:57:05.959Z,1.77
2023-03-17T08:59:36.928Z,1.42
2023-03-17T09:02:07.803Z,1.58
2023-03-17T09:04:40.254Z,1.27
2023-03-17T09:07:12.307Z,1.55
2023-03-17T09:09:42.736Z,1.40
2023-03-17T09:12:14.882Z,1.77
2023-03-17T09:14:47.456Z,1.60
2023-03-17T09:17:18.416Z,1.38
2023-03-17T09:19:48.840Z,1.55
2023-03-17T09:22:21.202Z,1.38
2023-03-17T09:24:52.206Z,1.42
2023-03-17T09:27:23.986Z,1.67
2023-03-17T09:29:54.504Z,1.40
2023-03-17T09:32:24.796Z,1.35
2023-03-17T09:34:55.346Z,1.50
2023-03-17T09:37:26.720Z,1.40
2023-03-17T09:39:58.858Z,1.65
2023-03-17T09:42:58.501Z,1.30
2023-03-17T09:45:43.359Z,1.40
2023-03-17T09:48:47.648Z,1.52
2023-03-17T09:51:22.085Z,1.50
2023-03-17T09:54:00.617Z,1.40
2023-03-17T09:56:35.443Z,1.10
2023-03-17T09:59:30.160Z,1.23
2023-03-17T10:02:01.554Z,1.27
2023-03-17T10:04:32.030Z,1.17
2023-03-17T10:07:11.340Z,1.27
2023-03-17T10:09:49.769Z,1.20
2023-03-17T10:12:38.630Z,1.35
2023-03-17T10:15:24.046Z,1.50
2023-03-17T10:17:56.054Z,1.15
2023-03-17T10:20:33.670Z,1.50
2023-03-17T10:23:09.816Z,1.20
2023-03-17T10:25:41.106Z,1.10
2023-03-17T10:28:28.915Z,0.98
2023-03-17T10:31:17.024Z,1.00
2023-03-17T10:33:52.804Z,0.82
2023-03-17T10:36:38.136Z,1.40
2023-03-17T10:39:13.115Z,1.40
2023-03-17T10:41:54.595Z,1.30
2023-03-17T10:44:44.618Z,1.10
2023-03-17T10:47:33.571Z,1.27
2023-03-17T10:50:22.081Z,1.27
2023-03-17T10:53:01.452Z,1.10
2023-03-17T10:55:35.700Z,1.10
2023-03-17T10:58:16.219Z,1.38
2023-03-17T11:00:59.117Z,1.00
2023-03-17T11:03:35.647Z,1.23
2023-03-17T11:06:10.987Z,1.20
2023-03-17T11:08:47.638Z,1.45
2023-03-17T11:11:28.490Z,1.25
2023-03-17T11:14:05.947Z,1.13
2023-03-17T11:16:41.255Z,1.02
2023-03-17T11:19:18.920Z,1.40
2023-03-17T11:22:01.243Z,1.20
2023-03-17T11:24:41.040Z,1.10
2023-03-17T11:27:22.723Z,0.90
2023-03-17T11:30:14.914Z,0.88
2023-03-17T11:32:51.881Z,0.93
2023-03-17T11:35:39.206Z,1.30
2023-03-17T11:38:24.847Z,0.90
2023-03-17T11:41:27.838Z,1.00
2023-03-17T11:44:29.374Z,0.90
2023-03-17T11:47:09.159Z,0.77
2023-03-17T11:49:42.172Z,1.15
2023-03-17T11:52:27.720Z,0.90
2023-03-17T11:55:12.050Z,1.20
2023-03-17T11:57:58.505Z,0.80
2023-03-17T12:00:35.146Z,0.90
2023-03-17T12:03:20.538Z,0.45
2023-03-17T12:05:58.896Z,1.08
2023-03-17T12:08:45.822Z,0.80
2023-03-17T12:11:23.401Z,0.82
2023-03-17T12:14:02.131Z,1.10
2023-03-17T12:16:41.932Z,2.15
2023-03-17T12:19:22.092Z,1.42
2023-03-17T12:22:00.140Z,1.10
2023-03-17T12:24:40.539Z,0.98
2023-03-17T12:27:18.034Z,0.75
2023-03-17T12:29:57.928Z,0.90
2023-03-17T12:32:38.772Z,0.60
2023-03-17T12:35:30.023Z,0.50
2023-03-17T12:38:05.359Z,0.50
2023-03-17T12:40:54.254Z,0.60
2023-03-17T12:43:54.545Z,0.50
2023-03-17T12:47:07.459Z,0.47
2023-03-17T12:50:25.067Z,0.57
2023-03-17T12:53:27.027Z,0.65
2023-03-17T12:56:07.711Z,0.57
2023-03-17T12:58:43.536Z,0.68
2023-03-17T13:01:27.928Z,0.60
2023-03-17T13:04:09.232Z,0.60
2023-03-17T13:06:48.758Z,0.55
2023-03-17T13:09:49.255Z,0.50
2023-03-17T13:13:12.081Z,0.55
2023-03-17T13:16:00.743Z,0.45
2023-03-17T13:18:51.648Z,0.63
2023-03-17T13:21:30.254Z,0.60
2023-03-17T13:24:51.610Z,0.70
2023-03-17T13:27:50.331Z,0.32
2023-03-17T13:30:59.225Z,0.32
2023-03-17T13:33:34.391Z,0.52
2023-03-17T13:36:39.013Z,0.70
2023-03-17T13:39:43.502Z,0.50
2023-03-17T13:42:47.813Z,0.32
2023-03-17T13:45:38.096Z,0.43
2023-03-17T13:48:48.445Z,0.50
2023-03-17T13:51:25.281Z,0.43
2023-03-17T13:54:01.410Z,0.47
2023-03-17T13:56:51.272Z,0.50
2023-03-17T13:59:22.822Z,0.30
2023-03-17T14:02:00.738Z,0.38
2023-03-17T14:04:46.808Z,0.65
2023-03-17T14:07:24.286Z,0.63
2023-03-17T14:10:00.438Z,0.40
2023-03-17T14:12:42.218Z,0.43
2023-03-17T14:15:25.492Z,0.43
2023-03-17T14:18:03.542Z,0.50
2023-03-17T14:20:35.873Z,0.40
2023-03-17T14:23:08.980Z,0.30
2023-03-17T14:25:41.007Z,0.40
2023-03-17T14:28:18.964Z,0.60
2023-03-17T14:30:56.841Z,0.40
2023-03-17T14:33:30.971Z,0.43
2023-03-17T14:36:06.088Z,0.40
2023-03-17T14:38:38.897Z,0.65
2023-03-17T14:41:19.026Z,0.35
2023-03-17T14:43:52.099Z,0.50
2023-03-17T14:46:27.796Z,0.50
2023-03-17T14:49:03.967Z,0.63
2023-03-17T14:51:39.278Z,0.50
2023-03-17T14:54:18.475Z,0.60
2023-03-17T14:56:58.246Z,0.40
2023-03-17T14:59:33.693Z,0.40
2023-03-17T15:02:18.493Z,0.30
2023-03-17T15:04:56.195Z,0.60
2023-03-17T15:07:40.723Z,0.40
2023-03-17T15:10:19.105Z,0.40
2023-03-17T15:12:50.116Z,0.43
2023-03-17T15:15:29.042Z,0.38
2023-03-17T15:18:01.968Z,0.45
2023-03-17T15:20:36.313Z,0.60
2023-03-17T15:23:20.114Z,0.75
2023-03-17T15:25:56.137Z,0.50
2023-03-17T15:28:30.650Z,0.43
2023-03-17T15:31:15.955Z,0.32
2023-03-17T15:33:46.901Z,0.50
2023-03-17T15:36:31.689Z,0.40
2023-03-17T15:39:06.525Z,0.43
2023-03-17T15:41:36.810Z,0.50
2023-03-17T15:44:07.528Z,0.47
2023-03-17T15:46:38.378Z,0.50
2023-03-17T15:49:13.815Z,0.38
2023-03-17T15:51:43.653Z,0.60
2023-03-17T15:54:17.966Z,0.45
2023-03-17T15:56:47.568Z,0.30
2023-03-17T15:59:17.774Z,0.40
2023-03-17T16:01:48.276Z,0.28
2023-03-17T16:04:19.596Z,0.50
2023-03-17T16:06:50.195Z,0.45
2023-03-17T16:09:22.770Z,0.57
2023-03-17T16:11:52.569Z,0.30
2023-03-17T16:14:23.061Z,0.40
2023-03-17T16:16:53.975Z,0.40
2023-03-17T16:19:26.725Z,0.50
2023-03-17T16:21:57.483Z,0.30
2023-03-17T16:24:31.708Z,0.50
2023-03-17T16:27:01.686Z,0.55
2023-03-17T16:29:32.940Z,0.50
2023-03-17T16:32:02.938Z,0.52
2023-03-17T16:34:34.809Z,0.63
2023-03-17T16:37:05.006Z,0.40
2023-03-17T16:39:37.083Z,0.40
2023-03-17T16:42:25.250Z,0.70
2023-03-17T16:44:56.567Z,0.90
2023-03-17T16:47:26.806Z,0.47
2023-03-17T16:49:57.209Z,0.65
2023-03-17T16:52:29.013Z,0.60
2023-03-17T16:55:01.358Z,0.73
2023-03-17T16:57:33.736Z,0.40
2023-03-17T17:00:08.344Z,0.52
2023-03-17T17:02:38.877Z,0.52
2023-03-17T17:05:15.842Z,0.45
2023-03-17T17:07:46.895Z,0.60
2023-03-17T17:10:21.736Z,0.70
2023-03-17T17:12:52.785Z,0.80
2023-03-17T17:15:24.251Z,0.68
2023-03-17T17:17:59.203Z,0.60
2023-03-17T17:20:33.058Z,0.52
2023-03-17T17:23:05.911Z,0.47
2023-03-17T17:25:38.582Z,0.77
2023-03-17T17:28:09.102Z,0.70
2023-03-17T17:30:43.254Z,0.45
2023-03-17T17:33:14.936Z,0.90
2023-03-17T17:35:46.812Z,0.77
2023-03-17T17:38:24.391Z,0.70
2023-03-17T17:40:58.330Z,0.40
2023-03-17T17:43:28.883Z,0.50
2023-03-17T17:45:59.282Z,0.50
2023-03-17T17:48:31.560Z,0.50
2023-03-17T17:51:02.147Z,0.47
2023-03-17T17:53:32.519Z,0.68
2023-03-17T17:56:05.187Z,0.77
2023-03-17T17:58:35.359Z,0.75
2023-03-17T18:01:05.902Z,0.50
2023-03-17T18:03:36.351Z,0.45
2023-03-17T18:06:06.846Z,0.40
2023-03-17T18:08:37.276Z,0.50
2023-03-17T18:11:09.795Z,0.70
2023-03-17T18:13:41.601Z,0.47
2023-03-17T18:16:17.448Z,0.52
2023-03-17T18:18:48.403Z,0.60
2023-03-17T18:21:18.545Z,0.43
2023-03-17T18:23:50.389Z,0.47
2023-03-17T18:26:23.328Z,0.65
2023-03-17T18:28:54.340Z,0.70
2023-03-17T18:31:31.621Z,0.85
2023-03-17T18:34:08.637Z,0.98
2023-03-17T18:36:39.130Z,0.88
2023-03-17T18:39:09.925Z,0.90
2023-03-17T18:41:41.974Z,0.60
2023-03-17T18:44:12.500Z,0.70
2023-03-17T18:46:43.125Z,0.60
2023-03-17T18:49:12.900Z,0.40
2023-03-17T18:51:43.355Z,0.55
2023-03-17T18:54:14.160Z,0.52
2023-03-17T18:56:46.743Z,0.70
2023-03-17T18:59:17.614Z,0.60
2023-03-17T19:01:48.191Z,0.50
2023-03-17T19:04:17.972Z,0.68
2023-03-17T19:06:48.229Z,0.82
2023-03-17T19:09:18.218Z,0.70
2023-03-17T19:11:50.571Z,0.73
2023-03-17T19:14:20.378Z,0.80
2023-03-17T19:16:50.828Z,0.93
2023-03-17T19:19:20.670Z,0.70
2023-03-17T19:21:51.448Z,0.65
2023-03-17T19:24:21.885Z,1.00
2023-03-17T19:26:53.450Z,1.20
2023-03-17T19:29:23.589Z,1.17
2023-03-17T19:31:54.133Z,0.82
2023-03-17T19:34:24.845Z,0.93
2023-03-17T19:36:55.409Z,0.98
2023-03-17T19:39:25.519Z,0.98
2023-03-17T19:41:59.515Z,1.05
2023-03-17T19:44:30.283Z,1.30
2023-03-17T19:47:02.068Z,0.98
2023-03-17T19:49:32.202Z,1.30
2023-03-17T19:52:02.595Z,1.30
2023-03-17T19:54:33.367Z,1.25
2023-03-17T19:57:06.307Z,1.38
2023-03-17T19:59:36.393Z,1.27
2023-03-17T20:02:06.982Z,1.30
2023-03-17T20:04:37.640Z,1.27
2023-03-17T20:07:07.777Z,1.27
2023-03-17T20:09:38.415Z,1.50
2023-03-17T20:12:10.998Z,1.60
2023-03-17T20:14:41.552Z,1.30
2023-03-17T20:17:12.470Z,0.95
2023-03-17T20:19:43.263Z,1.80
2023-03-17T20:22:13.698Z,1.30
2023-03-17T20:24:45.129Z,1.20
2023-03-17T20:27:17.956Z,1.33
2023-03-17T20:29:50.699Z,1.20
2023-03-17T20:32:21.353Z,1.23
2023-03-17T20:34:51.557Z,1.25
2023-03-17T20:37:22.970Z,1.30
2023-03-17T20:39:54.810Z,1.17
2023-03-17T20:42:30.321Z,1.17
2023-03-17T20:45:00.772Z,1.08
2023-03-17T20:47:31.348Z,1.38
2023-03-17T20:50:02.281Z,1.17
2023-03-17T20:52:32.928Z,1.40
2023-03-17T20:55:03.051Z,1.05
2023-03-17T20:57:38.309Z,1.00
2023-03-17T21:00:10.947Z,1.27
2023-03-17T21:02:41.881Z,1.20
2023-03-17T21:05:17.132Z,1.17
2023-03-17T21:07:47.835Z,1.25
2023-03-17T21:10:20.036Z,1.30
2023-03-17T21:12:52.773Z,1.27
2023-03-17T21:15:24.185Z,1.33
2023-03-17T21:17:54.339Z,1.17
2023-03-17T21:20:26.884Z,1.25
2023-03-17T21:22:57.593Z,0.85
2023-03-17T21:25:28.312Z,1.10
2023-03-17T21:28:01.471Z,1.10
2023-03-17T21:30:32.346Z,1.38
2023-03-17T21:33:02.858Z,1.10
2023-03-17T21:35:35.862Z,1.02
2023-03-17T21:38:06.654Z,1.00
2023-03-17T21:40:36.768Z,1.10
2023-03-17T21:43:08.734Z,1.00
2023-03-17T21:45:40.582Z,1.23
2023-03-17T21:48:11.670Z,1.33
2023-03-17T21:50:42.092Z,1.20
2023-03-17T21:53:16.236Z,1.17
2023-03-17T21:55:47.118Z,1.08
2023-03-17T21:58:20.950Z,1.20
2023-03-17T22:00:51.931Z,0.95
2023-03-17T22:03:22.805Z,0.90
2023-03-17T22:05:53.992Z,1.38
2023-03-17T22:08:24.166Z,1.00
2023-03-17T22:10:54.404Z,1.27
2023-03-17T22:13:26.586Z,1.20
2023-03-17T22:15:59.845Z,1.10
2023-03-17T22:18:30.100Z,0.88
2023-03-17T22:21:02.078Z,1.30
2023-03-17T22:23:32.331Z,1.00
2023-03-17T22:26:02.661Z,1.13
2023-03-17T22:28:35.802Z,1.17
2023-03-17T22:31:12.576Z,1.10
2023-03-17T22:33:43.120Z,1.35
2023-03-17T22:36:14.511Z,1.50
2023-03-17T22:38:45.006Z,1.30
2023-03-17T22:41:20.007Z,1.08
2023-03-17T22:43:52.871Z,1.30
2023-03-17T22:46:23.533Z,1.17
2023-03-17T22:48:54.637Z,1.40
2023-03-17T22:51:27.856Z,1.17
2023-03-17T22:53:59.164Z,1.10
2023-03-17T22:56:30.589Z,1.15
2023-03-17T22:59:03.173Z,1.20
2023-03-17T23:01:33.871Z,1.20
2023-03-17T23:04:04.855Z,1.10
2023-03-17T23:06:35.740Z,1.17
2023-03-17T23:09:07.251Z,1.13
2023-03-17T23:11:38.062Z,1.30
2023-03-17T23:14:10.843Z,1.27
2023-03-17T23:16:45.109Z,1.20
2023-03-17T23:19:15.484Z,1.60
2023-03-17T23:21:46.281Z,1.17
2023-03-17T23:24:17.194Z,1.42
2023-03-17T23:26:47.259Z,1.58
2023-03-17T23:29:20.128Z,1.40
2023-03-17T23:31:50.369Z,1.25
2023-03-17T23:34:20.570Z,1.42
2023-03-17T23:36:51.289Z,1.38
2023-03-17T23:39:21.788Z,1.40
2023-03-17T23:41:52.674Z,1.17
2023-03-17T23:44:24.861Z,1.20
2023-03-17T23:46:55.239Z,1.40
2023-03-17T23:49:25.740Z,1.40
2023-03-17T23:51:55.881Z,1.40
2023-03-17T23:54:26.868Z,1.70
2023-03-17T23:56:56.833Z,1.45
2023-03-17T23:59:29.701Z,1.25
